Time;durP1;ratioP1;P1;durP2;ratioP2;P2;SDS_P1;SDS_P2;PMS_P1;PMS_P2;Temp;Humidity;BMP_temperature;BMP_pressure;BME280_temperature;BME280_humidity;BME280_pressure;Samples;Min_cycle;Max_cycle;Signal;HPM_P1;HPM_P2
2022/07/07 00:00:16;;;;;;;3.97;1.90;;;;;;;27.30;40.33;101728.50;5049513;28;20062;-67
2022/07/07 00:02:42;;;;;;;3.40;1.98;;;;;;;27.29;40.08;101721.41;5033712;28;20036;-67
2022/07/07 00:05:07;;;;;;;4.90;2.10;;;;;;;27.30;40.30;101717.78;5036387;28;20583;-67
2022/07/07 00:07:33;;;;;;;5.00;1.90;;;;;;;27.28;40.09;101714.28;5037065;28;20368;-67
2022/07/07 00:09:58;;;;;;;2.95;1.95;;;;;;;27.28;40.43;101712.50;5041749;28;20036;-67
2022/07/07 00:12:24;;;;;;;3.75;1.80;;;;;;;27.25;40.38;101707.28;5043954;28;20051;-67
2022/07/07 00:14:49;;;;;;;3.53;2.03;;;;;;;27.23;40.28;101701.13;5047955;28;20044;-67
2022/07/07 00:17:15;;;;;;;4.95;2.03;;;;;;;27.26;40.60;101698.31;5049688;28;20035;-67
2022/07/07 00:19:40;;;;;;;3.30;2.00;;;;;;;27.26;40.25;101694.78;5042772;28;20031;-67
2022/07/07 00:22:05;;;;;;;4.43;1.95;;;;;;;27.24;40.06;101692.16;5042377;28;20033;-67
2022/07/07 00:24:31;;;;;;;2.70;1.80;;;;;;;27.22;40.11;101694.00;5032721;28;20021;-67
2022/07/07 00:26:56;;;;;;;4.80;2.00;;;;;;;27.23;40.42;101694.88;5041480;28;20487;-68
2022/07/07 00:29:22;;;;;;;4.25;2.13;;;;;;;27.23;40.16;101690.41;5036649;28;20120;-66
2022/07/07 00:31:47;;;;;;;4.90;1.75;;;;;;;27.24;40.20;101689.47;5048842;28;20063;-67
2022/07/07 00:34:14;;;;;;;3.78;1.90;;;;;;;27.24;40.14;101680.56;5046104;28;20079;-66
2022/07/07 00:36:41;;;;;;;2.60;1.70;;;;;;;27.22;40.27;101675.28;5039647;28;20032;-67
2022/07/07 00:39:06;;;;;;;6.20;2.00;;;;;;;27.22;40.18;101674.41;5038705;28;20033;-67
2022/07/07 00:41:33;;;;;;;2.97;1.90;;;;;;;27.20;40.13;101668.25;5041687;28;20025;-67
2022/07/07 00:43:58;;;;;;;3.10;1.80;;;;;;;27.22;40.16;101661.00;5033018;28;20037;-67
2022/07/07 00:46:26;;;;;;;3.90;2.08;;;;;;;27.20;40.18;101652.19;5046410;28;20053;-68
2022/07/07 00:48:51;;;;;;;5.88;1.98;;;;;;;27.22;40.23;101642.28;5046898;28;20029;-67
2022/07/07 00:51:17;;;;;;;4.18;1.95;;;;;;;27.20;40.17;101628.09;5031824;28;20088;-67
2022/07/07 00:53:42;;;;;;;3.92;1.80;;;;;;;27.20;40.23;101623.59;5038750;28;20021;-67
2022/07/07 00:56:08;;;;;;;2.53;1.80;;;;;;;27.19;40.26;101621.00;5038745;28;20051;-68
2022/07/07 00:58:33;;;;;;;2.10;1.63;;;;;;;27.20;40.39;101617.41;5032670;28;20040;-67
2022/07/07 01:01:00;;;;;;;3.38;1.80;;;;;;;27.17;40.18;101613.03;5039539;28;20033;-67
2022/07/07 01:03:26;;;;;;;4.03;1.80;;;;;;;27.19;40.17;101611.16;5036002;28;20029;-67
2022/07/07 01:05:53;;;;;;;3.83;1.90;;;;;;;27.17;40.28;101610.34;5040523;28;20039;-68
2022/07/07 01:08:19;;;;;;;3.38;1.98;;;;;;;27.18;40.42;101603.19;5037618;28;20458;-67
2022/07/07 01:10:45;;;;;;;4.00;1.98;;;;;;;27.14;40.30;101604.28;5043661;28;20029;-67
2022/07/07 01:13:12;;;;;;;3.33;1.80;;;;;;;27.15;40.34;101611.34;5047515;28;20111;-67
2022/07/07 01:15:37;;;;;;;4.15;1.80;;;;;;;27.13;40.26;101608.75;5039244;28;20071;-67
2022/07/07 01:18:03;;;;;;;3.25;1.95;;;;;;;27.14;40.41;101612.31;5037115;28;20029;-67
2022/07/07 01:20:28;;;;;;;2.40;1.70;;;;;;;27.16;40.24;101610.41;5047911;28;20120;-67
2022/07/07 01:22:55;;;;;;;4.30;1.90;;;;;;;27.11;40.30;101610.63;5040775;28;20033;-66
2022/07/07 01:25:21;;;;;;;4.80;1.98;;;;;;;27.12;40.19;101601.66;5035920;28;20494;-67
2022/07/07 01:27:47;;;;;;;2.88;1.85;;;;;;;27.14;40.46;101610.47;5033121;28;20037;-67
2022/07/07 01:30:13;;;;;;;4.00;1.95;;;;;;;27.14;40.25;101609.63;5038367;28;20021;-66
2022/07/07 01:32:39;;;;;;;2.50;1.85;;;;;;;27.14;40.59;101605.13;5047338;28;20037;-67
2022/07/07 01:35:05;;;;;;;2.47;1.83;;;;;;;27.15;40.29;101606.88;5040599;28;20051;-66
2022/07/07 01:37:33;;;;;;;2.38;1.70;;;;;;;27.14;40.37;101594.41;5040257;28;20136;-67
2022/07/07 01:39:58;;;;;;;2.70;1.73;;;;;;;27.16;40.36;101595.22;5040579;28;20029;-67
2022/07/07 01:42:24;;;;;;;3.05;1.90;;;;;;;27.17;40.40;101593.41;5033406;28;20163;-67
2022/07/07 01:44:51;;;;;;;2.67;1.80;;;;;;;27.12;40.44;101599.00;5044408;28;20043;-67
2022/07/07 01:47:18;;;;;;;4.22;2.03;;;;;;;27.15;40.47;101584.56;5041187;28;20045;-67
2022/07/07 01:49:44;;;;;;;3.00;1.77;;;;;;;27.15;40.20;101592.59;5034376;28;20029;-66
2022/07/07 01:52:09;;;;;;;3.15;1.75;;;;;;;27.15;40.14;101588.13;5042288;28;20037;-67
2022/07/07 01:54:36;;;;;;;3.20;1.80;;;;;;;27.13;40.23;101590.03;5032485;28;20468;-67
2022/07/07 01:57:02;;;;;;;3.28;1.83;;;;;;;27.12;40.41;101585.59;5035550;28;20055;-67
2022/07/07 01:59:28;;;;;;;4.38;1.90;;;;;;;27.12;40.21;101585.59;5033934;28;20484;-67
2022/07/07 02:01:53;;;;;;;2.90;1.80;;;;;;;27.10;40.36;101582.13;5038278;28;20057;-67
2022/07/07 02:04:19;;;;;;;5.30;1.80;;;;;;;27.12;40.47;101582.94;5052159;28;20063;-66
2022/07/07 02:06:44;;;;;;;2.50;1.60;;;;;;;27.11;40.37;101577.63;5038517;28;20045;-67
2022/07/07 02:09:10;;;;;;;2.05;1.50;;;;;;;27.10;40.39;101568.72;5043786;28;20041;-66
2022/07/07 02:11:36;;;;;;;2.08;1.40;;;;;;;27.10;40.37;101575.88;5041153;28;20483;-66
2022/07/07 02:14:02;;;;;;;3.05;1.67;;;;;;;27.10;40.24;101571.41;5033568;28;20108;-67
2022/07/07 02:16:28;;;;;;;2.50;1.70;;;;;;;27.11;40.36;101575.81;5034154;28;20029;-67
2022/07/07 02:18:57;;;;;;;3.17;1.70;;;;;;;27.07;40.43;101568.88;5037928;28;20032;-67
2022/07/07 02:21:23;;;;;;;2.00;1.50;;;;;;;27.08;40.42;101559.88;5050596;28;20060;-67
2022/07/07 02:23:50;;;;;;;2.33;1.65;;;;;;;27.08;40.40;101559.88;5047544;28;21141;-66
2022/07/07 02:26:15;;;;;;;2.33;1.70;;;;;;;27.11;40.29;101558.91;5044028;28;20106;-66
2022/07/07 02:28:41;;;;;;;2.60;1.60;;;;;;;27.07;40.41;101542.13;5040911;28;20487;-67
2022/07/07 02:31:07;;;;;;;1.85;1.50;;;;;;;27.08;40.23;101545.66;5044381;28;20048;-66
2022/07/07 02:33:33;;;;;;;2.60;1.60;;;;;;;27.07;40.20;101546.59;5042467;28;20541;-67
2022/07/07 02:35:58;;;;;;;2.95;1.80;;;;;;;27.06;40.58;101543.06;5047112;28;20029;-67
2022/07/07 02:38:25;;;;;;;2.50;1.60;;;;;;;27.08;40.37;101543.00;5041952;28;20034;-67
2022/07/07 02:40:50;;;;;;;3.15;1.70;;;;;;;27.04;40.29;101532.41;5044201;28;20063;-67
2022/07/07 02:43:17;;;;;;;2.58;1.55;;;;;;;27.05;40.43;101538.63;5036452;28;20029;-67
2022/07/07 02:45:44;;;;;;;2.20;1.60;;;;;;;27.05;40.45;101531.47;5043348;28;20484;-67
2022/07/07 02:48:11;;;;;;;2.47;1.70;;;;;;;27.03;40.49;101527.09;5040705;28;20077;-67
2022/07/07 02:50:37;;;;;;;2.17;1.58;;;;;;;27.02;40.19;101536.94;5041762;28;20142;-67
2022/07/07 02:53:03;;;;;;;3.03;1.70;;;;;;;27.00;40.35;101528.13;5042252;28;20090;-67
2022/07/07 02:55:30;;;;;;;2.10;1.67;;;;;;;27.02;40.34;101530.72;5045376;28;20029;-67
2022/07/07 02:57:56;;;;;;;2.80;1.50;;;;;;;27.02;40.38;101525.38;5028439;28;20033;-67
2022/07/07 03:00:21;;;;;;;3.40;1.50;;;;;;;27.00;40.54;101524.59;5042840;28;20028;-67
2022/07/07 03:02:46;;;;;;;2.78;1.73;;;;;;;27.01;40.51;101521.84;5040201;28;20088;-67
2022/07/07 03:05:12;;;;;;;3.15;1.80;;;;;;;27.02;40.49;101526.25;5044155;28;20117;-67
2022/07/07 03:07:38;;;;;;;2.55;1.50;;;;;;;27.00;40.45;101513.88;5044848;28;20110;-67
2022/07/07 03:10:05;;;;;;;2.22;1.50;;;;;;;27.00;40.58;101519.25;5052519;28;20024;-67
2022/07/07 03:12:30;;;;;;;2.22;1.70;;;;;;;27.00;40.45;101521.91;5047517;28;20028;-66
2022/07/07 03:14:56;;;;;;;1.90;1.60;;;;;;;26.99;40.40;101522.84;5047734;28;20040;-66
2022/07/07 03:17:21;;;;;;;3.78;1.50;;;;;;;27.00;40.40;101524.59;5034643;28;20059;-67
2022/07/07 03:19:46;;;;;;;2.05;1.60;;;;;;;26.98;40.20;101529.13;5033562;28;20136;-67
2022/07/07 03:22:12;;;;;;;2.22;1.30;;;;;;;26.98;40.35;101535.34;5047189;28;20037;-67
2022/07/07 03:24:37;;;;;;;2.72;1.52;;;;;;;26.98;40.41;101523.78;5039284;28;20225;-67
2022/07/07 03:27:03;;;;;;;1.90;1.50;;;;;;;26.97;40.27;101530.06;5036927;28;20041;-68
2022/07/07 03:29:28;;;;;;;2.20;1.50;;;;;;;26.95;40.42;101527.47;5044753;28;20035;-67
2022/07/07 03:31:53;;;;;;;3.50;1.50;;;;;;;26.94;40.53;101519.50;5046353;28;20375;-67
2022/07/07 03:34:19;;;;;;;2.17;1.48;;;;;;;26.94;40.51;101523.06;5042736;28;20106;-67
2022/07/07 03:36:45;;;;;;;1.63;1.38;;;;;;;26.97;40.21;101527.38;5035884;28;20044;-67
2022/07/07 03:39:11;;;;;;;2.95;1.52;;;;;;;26.95;40.47;101531.97;5041979;28;20041;-67
2022/07/07 03:41:37;;;;;;;3.40;1.40;;;;;;;26.95;40.43;101527.47;5040567;28;20100;-67
2022/07/07 03:44:03;;;;;;;2.35;1.45;;;;;;;26.96;40.43;101525.63;5040246;28;20116;-67
2022/07/07 03:46:29;;;;;;;1.75;1.40;;;;;;;26.95;40.50;101529.28;5037013;28;20037;-67
2022/07/07 03:48:55;;;;;;;2.78;1.50;;;;;;;26.93;40.50;101521.31;5047714;28;20127;-67
2022/07/07 03:51:20;;;;;;;1.80;1.50;;;;;;;26.91;40.39;101522.31;5042954;28;20037;-67
2022/07/07 03:53:45;;;;;;;2.45;1.70;;;;;;;26.92;40.42;101522.25;5037266;28;20032;-67
2022/07/07 03:56:11;;;;;;;2.20;1.50;;;;;;;26.92;40.57;101527.59;5036284;28;20521;-67
2022/07/07 03:58:36;;;;;;;1.90;1.48;;;;;;;26.93;40.51;101536.50;5039955;28;20112;-66
2022/07/07 04:01:01;;;;;;;2.25;1.40;;;;;;;26.92;40.52;101546.31;5041919;28;20554;-67
2022/07/07 04:03:27;;;;;;;2.22;1.60;;;;;;;26.91;40.59;101544.59;5034965;28;20033;-67
2022/07/07 04:05:52;;;;;;;2.58;1.60;;;;;;;26.91;40.54;101549.06;5036638;28;20123;-67
2022/07/07 04:08:18;;;;;;;1.67;1.40;;;;;;;26.90;40.70;101547.31;5036439;28;20033;-67
2022/07/07 04:10:43;;;;;;;2.13;1.60;;;;;;;26.91;40.45;101549.06;5040643;28;20037;-66
2022/07/07 04:13:10;;;;;;;1.65;1.20;;;;;;;26.91;40.58;101544.59;5045978;28;20020;-67
2022/07/07 04:15:35;;;;;;;1.92;1.40;;;;;;;26.89;40.52;101556.31;5038717;28;20025;-67
2022/07/07 04:18:01;;;;;;;1.85;1.40;;;;;;;26.88;40.49;101563.47;5039044;28;20172;-67
2022/07/07 04:20:27;;;;;;;2.17;1.42;;;;;;;26.89;40.52;101577.72;5044823;28;20107;-67
2022/07/07 04:22:52;;;;;;;2.83;1.42;;;;;;;26.88;40.59;101592.00;5037563;28;20148;-67
2022/07/07 04:25:18;;;;;;;2.17;1.45;;;;;;;26.85;40.51;101579.59;5043558;28;20049;-67
2022/07/07 04:27:44;;;;;;;1.95;1.50;;;;;;;26.85;40.54;101576.06;5044641;28;20036;-67
2022/07/07 04:30:10;;;;;;;2.55;1.48;;;;;;;26.85;40.32;101586.75;5044721;28;20060;-66
2022/07/07 04:32:36;;;;;;;2.22;1.50;;;;;;;26.86;40.38;101578.66;5038701;28;20108;-67
2022/07/07 04:35:02;;;;;;;1.88;1.33;;;;;;;26.86;40.20;101578.66;5036841;28;20463;-67
2022/07/07 04:37:27;;;;;;;3.30;1.48;;;;;;;26.86;40.54;101589.38;5039944;28;20033;-66
2022/07/07 04:39:52;;;;;;;2.22;1.40;;;;;;;26.84;40.46;101588.56;5041774;28;20033;-67
2022/07/07 04:42:18;;;;;;;1.92;1.48;;;;;;;26.86;40.48;101596.53;5042612;28;20108;-67
2022/07/07 04:44:43;;;;;;;2.15;1.50;;;;;;;26.87;40.42;101601.81;5038818;28;20063;-66
2022/07/07 04:47:08;;;;;;;1.98;1.30;;;;;;;26.87;40.51;101599.16;5047709;28;20567;-67
2022/07/07 04:49:34;;;;;;;1.70;1.30;;;;;;;26.83;40.47;101600.22;5040273;28;20468;-67
2022/07/07 04:51:59;;;;;;;2.42;1.67;;;;;;;26.87;40.52;101617.00;5042146;28;20495;-68
2022/07/07 04:54:25;;;;;;;2.08;1.30;;;;;;;26.85;40.45;101616.19;5034316;28;20039;-67
2022/07/07 04:56:50;;;;;;;2.40;1.40;;;;;;;26.85;40.38;101613.50;5042733;28;20061;-67
2022/07/07 04:59:15;;;;;;;2.10;1.40;;;;;;;26.84;40.66;101625.13;5040239;28;20480;-67
2022/07/07 05:01:41;;;;;;;1.92;1.50;;;;;;;26.84;40.15;101623.34;5035191;28;20484;-67
2022/07/07 05:04:06;;;;;;;2.30;1.50;;;;;;;26.87;40.51;101623.22;5033287;28;20037;-67
2022/07/07 05:06:32;;;;;;;2.22;1.55;;;;;;;26.88;40.46;101626.78;5039459;28;20033;-67
2022/07/07 05:08:57;;;;;;;2.25;1.30;;;;;;;26.88;40.32;101624.09;5043562;28;20034;-67
2022/07/07 05:11:22;;;;;;;1.80;1.30;;;;;;;26.86;40.35;101629.50;5038681;28;20029;-67
2022/07/07 05:13:48;;;;;;;2.03;1.40;;;;;;;26.88;40.38;101627.69;5036632;28;20414;-67
2022/07/07 05:16:13;;;;;;;2.17;1.48;;;;;;;26.88;40.13;101633.03;5034480;28;20387;-67
2022/07/07 05:18:38;;;;;;;2.13;1.58;;;;;;;26.88;40.20;101629.44;5022273;28;20075;-67
2022/07/07 05:21:04;;;;;;;3.03;1.73;;;;;;;26.91;40.39;101637.38;5042028;28;20025;-68
2022/07/07 05:23:29;;;;;;;1.95;1.38;;;;;;;26.90;40.49;101639.16;5040332;28;20026;-68
2022/07/07 05:25:55;;;;;;;1.88;1.50;;;;;;;26.94;40.29;101627.41;5039565;28;20076;-67
2022/07/07 05:28:21;;;;;;;2.15;1.35;;;;;;;26.97;40.18;101639.78;5038510;28;20424;-68
2022/07/07 05:30:46;;;;;;;2.00;1.30;;;;;;;26.99;40.23;101643.28;5035006;28;20042;-66
2022/07/07 05:33:12;;;;;;;2.22;1.38;;;;;;;26.99;40.50;101652.19;5036891;28;20550;-67
2022/07/07 05:35:37;;;;;;;3.40;1.33;;;;;;;27.03;40.12;101647.53;5036777;28;20026;-67
2022/07/07 05:38:03;;;;;;;2.78;1.50;;;;;;;27.04;40.34;101660.00;5035999;28;20044;-67
2022/07/07 05:40:29;;;;;;;4.55;1.60;;;;;;;27.03;40.39;101666.28;5041053;28;20071;-67
2022/07/07 05:42:55;;;;;;;2.70;1.40;;;;;;;27.04;40.27;101671.56;5033443;28;20556;-67
2022/07/07 05:45:20;;;;;;;3.15;1.38;;;;;;;27.09;40.62;101675.84;5035190;28;20033;-68
2022/07/07 05:47:46;;;;;;;2.53;1.50;;;;;;;27.09;40.67;101667.81;5037861;28;20495;-68
2022/07/07 05:50:11;;;;;;;3.13;1.30;;;;;;;27.09;40.74;101673.19;5042466;28;20036;-66
2022/07/07 05:52:37;;;;;;;3.33;1.50;;;;;;;27.09;40.85;101686.56;5048082;28;20029;-66
2022/07/07 05:55:03;;;;;;;3.50;1.50;;;;;;;27.15;40.49;101679.13;5028446;28;20029;-67
2022/07/07 05:57:28;;;;;;;1.98;1.40;;;;;;;27.20;40.55;101690.53;5035885;28;20493;-66
2022/07/07 05:59:54;;;;;;;2.53;1.30;;;;;;;27.27;40.56;101688.44;5032157;28;20033;-67
2022/07/07 06:02:19;;;;;;;2.33;1.38;;;;;;;27.29;40.54;101692.81;5037713;28;20083;-67
2022/07/07 06:04:44;;;;;;;3.03;1.35;;;;;;;27.33;40.57;101691.75;5045677;28;20045;-66
2022/07/07 06:07:10;;;;;;;2.95;1.50;;;;;;;28.37;38.50;101690.59;5037092;28;20025;-67
2022/07/07 06:09:35;;;;;;;2.08;1.38;;;;;;;30.15;34.76;101698.44;5039137;28;20553;-66
2022/07/07 06:12:01;;;;;;;3.28;1.80;;;;;;;32.20;31.63;101702.38;5040567;28;20034;-67
2022/07/07 06:14:28;;;;;;;4.03;1.83;;;;;;;33.38;29.52;101715.25;5043627;28;20033;-66
2022/07/07 06:16:53;;;;;;;4.63;2.00;;;;;;;33.95;28.66;101720.28;5033073;28;20029;-66
2022/07/07 06:19:19;;;;;;;2.33;1.60;;;;;;;33.56;29.40;101718.50;5037677;28;20071;-67
2022/07/07 06:21:44;;;;;;;4.45;1.27;;;;;;;30.32;34.81;101724.41;5035867;28;20113;-67
2022/07/07 06:24:09;;;;;;;3.65;1.40;;;;;;;28.81;37.54;101722.50;5039164;28;20025;-66
2022/07/07 06:26:35;;;;;;;2.17;1.17;;;;;;;28.25;39.17;101726.03;5026889;28;20044;-67
2022/07/07 06:29:01;;;;;;;2.63;1.50;;;;;;;27.92;39.70;101720.41;5032505;28;20033;-66
2022/07/07 06:31:26;;;;;;;2.35;1.30;;;;;;;27.85;39.69;101714.47;5044723;28;20037;-67
2022/07/07 06:33:51;;;;;;;2.00;1.30;;;;;;;27.81;40.01;101726.22;5033518;28;20483;-64
2022/07/07 06:36:17;;;;;;;2.00;1.30;;;;;;;27.73;40.06;101736.44;5042186;28;20403;-67
2022/07/07 06:38:42;;;;;;;2.50;1.25;;;;;;;27.60;40.73;101732.56;5034325;28;20364;-74
2022/07/07 06:41:08;;;;;;;5.00;1.30;;;;;;;27.66;40.64;101736.78;5020284;28;20512;-68
2022/07/07 06:43:33;;;;;;;2.50;1.50;;;;;;;27.61;40.56;101737.00;5024872;28;20036;-68
2022/07/07 06:45:59;;;;;;;1.83;1.40;;;;;;;27.33;42.29;101739.06;5030031;28;20037;-67
2022/07/07 06:48:24;;;;;;;7.40;1.65;;;;;;;27.65;41.04;101740.38;5039745;28;20049;-68
2022/07/07 06:50:49;;;;;;;12.45;1.80;;;;;;;27.68;41.37;101754.53;5026468;28;20063;-69
2022/07/07 06:53:15;;;;;;;6.45;1.30;;;;;;;27.75;40.94;101753.31;5027366;28;20030;-69
2022/07/07 06:55:41;;;;;;;13.98;1.70;;;;;;;27.79;41.12;101764.78;5027199;28;20156;-69
2022/07/07 06:58:07;;;;;;;5.90;1.50;;;;;;;27.77;40.64;101780.03;5028396;28;20027;-68
2022/07/07 07:00:32;;;;;;;21.25;1.42;;;;;;;27.74;40.72;101761.44;5028872;28;20033;-65
2022/07/07 07:02:58;;;;;;;15.13;1.60;;;;;;;27.69;40.76;101774.16;5028110;28;20068;-66
2022/07/07 07:05:23;;;;;;;3.83;1.50;;;;;;;27.75;40.58;101769.38;5028577;28;20414;-67
2022/07/07 07:07:49;;;;;;;3.88;1.30;;;;;;;27.76;40.85;101772.94;5027458;28;20080;-66
2022/07/07 07:10:14;;;;;;;7.65;1.30;;;;;;;27.77;40.74;101780.03;5029722;28;20037;-65
2022/07/07 07:12:40;;;;;;;7.32;1.60;;;;;;;27.71;40.85;101778.50;5038432;28;20043;-67
2022/07/07 07:15:06;;;;;;;2.88;1.30;;;;;;;27.83;40.46;101791.38;5029204;28;20022;-66
2022/07/07 07:17:32;;;;;;;9.45;1.30;;;;;;;27.85;40.48;101799.34;5030048;28;20384;-67
2022/07/07 07:19:58;;;;;;;8.38;1.52;;;;;;;27.83;41.54;101796.72;5030528;28;20033;-71
2022/07/07 07:22:24;;;;;;;11.10;1.52;;;;;;;27.96;40.76;101788.13;5048797;28;20036;-74
2022/07/07 07:24:50;;;;;;;7.25;1.38;;;;;;;27.97;40.64;101784.53;5043653;28;20049;-73
2022/07/07 07:27:16;;;;;;;10.45;1.50;;;;;;;27.96;40.37;101782.78;5030110;28;20375;-72
2022/07/07 07:29:42;;;;;;;6.35;1.38;;;;;;;27.89;41.25;101774.13;5027119;28;20108;-76
2022/07/07 07:32:07;;;;;;;10.35;1.38;;;;;;;28.00;40.97;101787.06;5030902;28;20036;-67
2022/07/07 07:34:32;;;;;;;5.28;1.40;;;;;;;27.96;41.01;101801.53;5030156;28;20036;-72
2022/07/07 07:36:58;;;;;;;14.60;1.77;;;;;;;28.15;40.38;101799.81;5029336;28;20124;-69
2022/07/07 07:39:23;;;;;;;10.35;1.50;;;;;;;28.17;40.57;101798.81;5032568;28;20036;-69
2022/07/07 07:41:49;;;;;;;8.00;1.40;;;;;;;28.28;40.17;101797.44;5029348;28;20040;-69
2022/07/07 07:45:09;;;;;;;8.00;1.45;;;;;;;28.28;40.44;101808.19;5033200;28;20030;-70
2022/07/07 07:46:59;;;;;;;8.65;1.40;;;;;;;28.31;40.28;101811.59;5028509;28;20076;-70
2022/07/07 07:49:25;;;;;;;6.20;1.42;;;;;;;28.32;40.41;101816.00;5036092;28;20045;-70
2022/07/07 07:51:50;;;;;;;7.75;1.10;;;;;;;28.29;40.04;101818.84;5049311;28;20094;-70
2022/07/07 07:54:15;;;;;;;6.90;1.33;;;;;;;28.21;40.59;101819.19;5043585;28;20113;-69
2022/07/07 07:56:41;;;;;;;5.30;1.10;;;;;;;28.20;40.44;101820.13;5029352;28;20033;-70
2022/07/07 07:59:07;;;;;;;8.45;1.50;;;;;;;28.43;39.86;101820.88;5028546;28;20036;-69
2022/07/07 08:01:32;;;;;;;5.57;1.30;;;;;;;28.37;39.66;101822.03;5037175;28;20069;-70
2022/07/07 08:03:57;;;;;;;10.07;1.17;;;;;;;28.33;39.65;101825.81;5029758;28;20049;-69
2022/07/07 08:06:23;;;;;;;7.28;1.33;;;;;;;28.44;39.63;101836.91;5031590;28;20407;-68
2022/07/07 08:08:48;;;;;;;12.30;1.67;;;;;;;28.31;40.10;101832.16;5027069;28;20476;-70
2022/07/07 08:11:14;;;;;;;15.18;1.20;;;;;;;28.47;39.68;101834.09;5029006;28;20455;-71
2022/07/07 08:13:39;;;;;;;19.95;1.50;;;;;;;28.56;39.31;101841.72;5029512;28;20107;-70
2022/07/07 08:16:04;;;;;;;7.28;1.50;;;;;;;28.65;38.92;101841.28;5029354;28;20537;-70
2022/07/07 08:18:30;;;;;;;5.63;1.20;;;;;;;28.65;39.04;101840.41;5023503;28;20534;-70
2022/07/07 08:20:55;;;;;;;6.65;1.45;;;;;;;28.68;38.96;101840.25;5029036;28;20394;-70
2022/07/07 08:23:21;;;;;;;8.18;1.40;;;;;;;28.65;39.51;101835.06;5027049;28;20091;-70
2022/07/07 08:25:46;;;;;;;9.63;1.52;;;;;;;28.47;39.92;101841.28;5029368;28;20025;-68
2022/07/07 08:28:12;;;;;;;6.47;1.30;;;;;;;28.40;39.94;101847.84;5027963;28;20141;-69
2022/07/07 08:30:37;;;;;;;8.18;1.30;;;;;;;28.36;39.79;101847.09;5029108;28;20445;-71
2022/07/07 08:33:05;;;;;;;11.93;1.52;;;;;;;28.33;39.74;101844.56;5026508;28;20061;-70
2022/07/07 08:35:30;;;;;;;18.73;2.03;;;;;;;28.40;39.88;101862.13;5028155;28;20037;-68
2022/07/07 08:37:56;;;;;;;3.63;0.95;;;;;;;28.51;39.44;101861.66;5029481;28;20373;-70
2022/07/07 08:40:22;;;;;;;7.85;1.15;;;;;;;28.49;39.95;101859.03;5029006;28;20033;-69
2022/07/07 08:42:48;;;;;;;9.02;1.48;;;;;;;28.48;39.72;101867.16;5029464;28;20049;-68
2022/07/07 08:45:14;;;;;;;8.32;1.25;;;;;;;28.54;39.46;101867.75;5027684;28;20052;-70
2022/07/07 08:47:40;;;;;;;8.85;1.23;;;;;;;28.54;39.85;101866.88;5029215;28;20042;-70
2022/07/07 08:50:05;;;;;;;8.63;1.30;;;;;;;28.40;40.33;101869.31;5039512;28;20037;-70
2022/07/07 08:52:31;;;;;;;7.18;1.00;;;;;;;28.28;40.53;101872.53;5047590;28;20060;-67
2022/07/07 08:54:57;;;;;;;6.43;1.30;;;;;;;28.35;40.62;101864.16;5047321;28;20052;-69
2022/07/07 08:57:24;;;;;;;8.57;1.23;;;;;;;28.45;40.08;101875.34;5049273;28;20490;-70
2022/07/07 08:59:50;;;;;;;17.92;1.70;;;;;;;28.57;40.08;101870.28;5035612;28;20126;-68
2022/07/07 09:02:16;;;;;;;13.05;1.40;;;;;;;28.56;40.78;101881.94;5029223;28;20113;-69
2022/07/07 09:04:41;;;;;;;13.73;1.27;;;;;;;28.64;40.15;101879.78;5028632;28;20039;-70
2022/07/07 09:07:07;;;;;;;23.45;1.27;;;;;;;28.56;40.24;101889.13;5033706;28;20082;-72
2022/07/07 09:09:49;;;;;;;6.68;1.08;;;;;;;28.77;39.96;101898.06;5036340;28;20134;-68
2022/07/07 09:12:18;;;;;;;10.05;1.40;;;;;;;28.69;40.18;101897.50;5028090;28;20045;-67
2022/07/07 09:14:49;;;;;;;11.38;1.35;;;;;;;28.67;40.24;101905.59;5029504;28;20072;-66
2022/07/07 09:17:24;;;;;;;10.23;1.10;;;;;;;28.77;40.18;101906.09;5028728;28;20040;-65
2022/07/07 09:20:13;;;;;;;10.20;1.30;;;;;;;28.84;39.68;101913.81;5028934;28;20044;-70
2022/07/07 09:22:53;;;;;;;7.90;1.30;;;;;;;28.82;40.07;101906.75;5028906;28;20029;-67
2022/07/07 09:25:22;;;;;;;7.80;1.10;;;;;;;28.90;39.90;101910.84;5027775;28;20036;-68
2022/07/07 09:28:01;;;;;;;3.88;1.05;;;;;;;28.89;39.88;101905.53;5027884;28;20035;-68
2022/07/07 09:30:31;;;;;;;8.25;1.23;;;;;;;28.93;39.93;101918.72;5033411;28;20063;-66
2022/07/07 09:32:58;;;;;;;14.18;1.10;;;;;;;28.88;39.82;101919.91;5045755;28;20061;-67
2022/07/07 09:38:13;;;;;;;7.60;1.30;;;;;;;28.90;39.96;101923.38;5028007;28;20110;-67
2022/07/07 09:40:53;;;;;;;12.32;1.30;;;;;;;28.88;39.92;101939.56;5042839;28;20037;-70
2022/07/07 09:43:19;;;;;;;6.18;1.15;;;;;;;28.89;39.89;101949.34;5047756;28;20425;-69
2022/07/07 09:46:08;;;;;;;8.23;1.42;;;;;;;28.83;39.60;101951.44;5048688;28;20067;-69
2022/07/07 09:48:35;;;;;;;9.52;1.52;;;;;;;28.82;39.82;101955.06;5047825;28;20056;-69
2022/07/07 09:51:24;;;;;;;8.65;1.20;;;;;;;28.78;40.19;101967.78;5045765;28;20040;-69
2022/07/07 09:53:53;;;;;;;10.82;1.52;;;;;;;28.59;40.91;101967.69;5041096;28;20068;-68
2022/07/07 09:56:21;;;;;;;7.72;1.20;;;;;;;28.63;40.81;101963.91;5030305;28;20053;-67
2022/07/07 09:58:46;;;;;;;7.40;1.20;;;;;;;28.66;40.92;101973.66;5037257;28;20079;-68
2022/07/07 10:01:12;;;;;;;8.98;1.67;;;;;;;28.65;40.58;101979.97;5038223;28;20033;-67
2022/07/07 10:03:38;;;;;;;7.80;1.15;;;;;;;28.65;40.76;101979.97;5036597;28;20029;-67
2022/07/07 10:06:04;;;;;;;8.65;1.30;;;;;;;28.65;40.49;101988.00;5032136;28;20033;-68
2022/07/07 10:08:33;;;;;;;10.10;1.35;;;;;;;28.75;40.52;101988.50;5030841;28;20743;-69
2022/07/07 10:11:02;;;;;;;9.70;1.23;;;;;;;28.74;40.78;101998.34;5039689;28;20713;-67
2022/07/07 10:13:31;;;;;;;9.55;1.42;;;;;;;28.71;40.56;102005.66;5032518;28;20367;-73
2022/07/07 10:15:56;;;;;;;19.23;1.55;;;;;;;28.60;40.87;102011.50;5036406;28;20037;-72
2022/07/07 10:18:22;;;;;;;15.07;1.73;;;;;;;28.69;40.80;102013.75;5027729;28;20499;-65
2022/07/07 10:20:48;;;;;;;17.92;2.05;;;;;;;28.73;40.47;102015.34;5036156;28;20028;-65
2022/07/07 10:23:15;;;;;;;11.65;2.13;;;;;;;28.76;40.04;102007.22;5031210;28;20033;-66
2022/07/07 10:25:40;;;;;;;20.15;2.17;;;;;;;28.78;40.85;102017.91;5031430;28;20029;-66
2022/07/07 10:28:05;;;;;;;17.40;2.40;;;;;;;28.80;40.49;102026.72;5032005;28;20098;-67
2022/07/07 10:30:33;;;;;;;8.43;2.10;;;;;;;28.79;40.20;102025.84;5032183;28;20041;-67
2022/07/07 10:32:58;;;;;;;10.00;2.10;;;;;;;28.84;40.72;102034.59;5030558;28;20037;-65
2022/07/07 10:35:25;;;;;;;7.07;1.98;;;;;;;28.83;40.24;102032.84;5036925;28;20078;-65
2022/07/07 10:37:55;;;;;;;9.00;2.15;;;;;;;28.82;40.43;102041.84;5051085;28;20111;-66
2022/07/07 10:40:26;;;;;;;8.75;2.00;;;;;;;28.83;40.17;102048.09;5051572;28;20479;-66
2022/07/07 10:43:07;;;;;;;11.13;2.22;;;;;;;28.82;40.30;102051.69;5051489;28;20025;-66
2022/07/07 10:45:33;;;;;;;10.98;2.20;;;;;;;28.81;40.60;102064.25;5035295;28;20087;-75
2022/07/07 10:47:58;;;;;;;8.98;1.90;;;;;;;28.83;40.09;102067.75;5043096;28;20045;-71
2022/07/07 10:50:26;;;;;;;12.35;2.22;;;;;;;28.64;40.46;102074.81;5047634;28;20079;-71
2022/07/07 10:52:53;;;;;;;7.03;1.80;;;;;;;28.75;40.65;102075.25;5031065;28;20030;-69
2022/07/07 10:55:18;;;;;;;11.20;2.00;;;;;;;28.60;40.97;102084.81;5028847;28;20056;-64
2022/07/07 10:57:46;;;;;;;16.52;1.80;;;;;;;28.71;41.14;102100.44;5031239;28;20067;-70
2022/07/07 11:00:26;;;;;;;10.00;2.00;;;;;;;28.65;41.54;102114.13;5031083;28;20107;-71
2022/07/07 11:03:07;;;;;;;9.68;1.98;;;;;;;28.67;41.60;102114.06;5034756;28;20026;-70
2022/07/07 11:05:35;;;;;;;14.10;2.22;;;;;;;28.78;41.07;102109.16;5043606;28;20109;-67
2022/07/07 11:08:03;;;;;;;14.50;2.50;;;;;;;28.77;41.08;102119.00;5042144;28;20057;-65
2022/07/07 11:10:37;;;;;;;14.30;2.20;;;;;;;28.69;41.17;102126.47;5044436;28;20828;-66
2022/07/07 11:13:31;;;;;;;10.40;2.58;;;;;;;28.83;41.11;102129.47;5034646;28;20041;-65
2022/07/07 11:16:05;;;;;;;10.32;2.13;;;;;;;28.96;40.23;102130.72;5035972;28;20104;-66
2022/07/07 11:18:33;;;;;;;6.68;1.95;;;;;;;28.85;39.88;102124.06;5037483;28;20071;-71
2022/07/07 11:21:01;;;;;;;9.93;1.50;;;;;;;28.56;39.31;102131.47;5040640;28;20060;-63
2022/07/07 11:23:42;;;;;;;7.32;1.70;;;;;;;28.61;39.09;102134.84;5047714;28;20025;-63